createdAt,value
2017-12-16T00:01:18.991Z,34.60
2017-12-16T00:03:46.391Z,35.13
2017-12-16T00:06:13.775Z,36.40
2017-12-16T00:08:41.215Z,35.70
2017-12-16T00:11:08.602Z,34.93
2017-12-16T00:13:41.691Z,34.60
2017-12-16T00:16:09.143Z,34.23
2017-12-16T00:18:36.534Z,33.40
2017-12-16T00:21:03.935Z,31.50
2017-12-16T00:23:31.327Z,30.63
2017-12-16T00:25:58.744Z,32.57
2017-12-16T00:28:26.195Z,31.40
2017-12-16T00:30:53.601Z,35.00
2017-12-16T00:33:20.988Z,32.53
2017-12-16T00:35:48.375Z,31.47
2017-12-16T00:38:15.770Z,32.00
2017-12-16T00:40:43.167Z,30.17
2017-12-16T00:43:10.555Z,32.33
2017-12-16T00:45:37.946Z,30.40
2017-12-16T00:48:05.344Z,27.70
2017-12-16T00:50:32.754Z,29.27
2017-12-16T00:53:00.140Z,27.00
2017-12-16T00:55:27.526Z,28.63
2017-12-16T00:57:54.923Z,28.73
2017-12-16T01:00:22.321Z,25.80
2017-12-16T01:02:49.724Z,28.23
2017-12-16T01:05:17.120Z,27.73
2017-12-16T01:07:44.532Z,26.50
2017-12-16T01:10:12.022Z,27.80
2017-12-16T01:12:39.418Z,30.40
2017-12-16T01:15:06.807Z,30.70
2017-12-16T01:17:34.411Z,33.47
2017-12-16T01:20:01.808Z,33.77
2017-12-16T01:22:29.206Z,33.37
2017-12-16T01:24:56.590Z,30.27
2017-12-16T01:27:23.995Z,31.40
2017-12-16T01:29:51.399Z,32.30
2017-12-16T01:32:18.783Z,31.90
2017-12-16T01:34:57.854Z,32.90
2017-12-16T01:37:37.082Z,33.40
2017-12-16T01:40:04.487Z,34.83
2017-12-16T01:42:31.874Z,34.90
2017-12-16T01:44:59.270Z,33.20
2017-12-16T01:47:26.721Z,35.37
2017-12-16T01:49:54.117Z,33.60
2017-12-16T01:52:21.503Z,33.23
2017-12-16T01:54:48.971Z,36.30
2017-12-16T01:57:16.363Z,33.97
2017-12-16T01:59:43.746Z,34.80
2017-12-16T02:02:11.149Z,35.90
2017-12-16T02:04:38.595Z,37.33
2017-12-16T02:07:05.992Z,37.10
2017-12-16T02:09:33.388Z,34.57
2017-12-16T02:12:00.859Z,34.73
2017-12-16T02:14:28.262Z,36.83
2017-12-16T02:16:55.647Z,35.40
2017-12-16T02:19:23.043Z,37.80
2017-12-16T02:21:50.483Z,35.97
2017-12-16T02:24:17.898Z,35.60
2017-12-16T02:26:45.286Z,35.87
2017-12-16T02:29:12.679Z,36.50
2017-12-16T02:31:40.123Z,38.87
2017-12-16T02:34:07.554Z,36.03
2017-12-16T02:36:34.990Z,36.43
2017-12-16T02:39:03.311Z,39.00
2017-12-16T02:41:30.712Z,37.90
2017-12-16T02:43:58.424Z,36.67
2017-12-16T02:46:25.823Z,35.00
2017-12-16T02:48:53.218Z,36.43
2017-12-16T02:51:20.624Z,37.87
2017-12-16T02:53:48.033Z,35.80
2017-12-16T02:56:15.445Z,36.77
2017-12-16T02:58:42.839Z,35.20
2017-12-16T03:01:10.236Z,34.27
2017-12-16T03:03:37.664Z,34.37
2017-12-16T03:06:05.051Z,35.50
2017-12-16T03:08:32.446Z,34.30
2017-12-16T03:10:59.856Z,36.30
2017-12-16T03:13:27.243Z,34.10
2017-12-16T03:15:54.646Z,33.00
2017-12-16T03:18:22.124Z,34.30
2017-12-16T03:20:49.519Z,30.90
2017-12-16T03:23:16.921Z,31.30
2017-12-16T03:25:44.878Z,34.30
2017-12-16T03:28:12.351Z,35.27
2017-12-16T03:30:39.752Z,32.73
2017-12-16T03:33:07.167Z,33.73
2017-12-16T03:35:34.564Z,32.60
2017-12-16T03:38:01.966Z,32.47
2017-12-16T03:40:29.342Z,33.20
2017-12-16T03:42:56.739Z,34.47
2017-12-16T03:45:24.133Z,30.90
2017-12-16T03:47:51.594Z,30.13
2017-12-16T03:50:19.639Z,28.17
2017-12-16T03:52:47.046Z,30.13
2017-12-16T03:55:14.426Z,30.83
2017-12-16T03:57:41.825Z,31.00
2017-12-16T04:00:09.223Z,29.60
2017-12-16T04:02:36.614Z,26.40
2017-12-16T04:05:04.004Z,29.70
2017-12-16T04:07:31.404Z,29.07
2017-12-16T04:09:58.795Z,28.87
2017-12-16T04:12:26.191Z,28.20
2017-12-16T04:14:53.587Z,26.47
2017-12-16T04:17:20.983Z,28.77
2017-12-16T04:19:48.372Z,28.77
2017-12-16T04:22:15.779Z,30.17
2017-12-16T04:24:43.175Z,29.33
2017-12-16T04:27:10.619Z,28.13
2017-12-16T04:29:38.015Z,28.10
2017-12-16T04:32:05.415Z,28.43
2017-12-16T04:34:32.803Z,30.93
2017-12-16T04:37:00.195Z,28.77
2017-12-16T04:39:27.588Z,28.73
2017-12-16T04:41:54.998Z,29.47
2017-12-16T04:44:22.474Z,28.10
2017-12-16T04:46:49.892Z,27.40
2017-12-16T04:49:17.287Z,27.60
2017-12-16T04:51:44.739Z,28.00
2017-12-16T04:54:12.143Z,25.90
2017-12-16T04:56:39.530Z,27.40
2017-12-16T04:59:06.928Z,28.70
2017-12-16T05:01:34.323Z,30.20
2017-12-16T05:04:01.714Z,26.50
2017-12-16T05:06:29.107Z,27.63
2017-12-16T05:08:56.495Z,29.10
2017-12-16T05:11:23.883Z,30.67
2017-12-16T05:13:51.283Z,29.67
2017-12-16T05:16:18.676Z,26.30
2017-12-16T05:18:46.103Z,30.77
2017-12-16T05:21:13.517Z,26.20
2017-12-16T05:23:40.912Z,24.43
2017-12-16T05:26:08.302Z,27.47
2017-12-16T05:28:35.691Z,24.90
2017-12-16T05:31:03.114Z,26.97
2017-12-16T05:33:30.496Z,25.83
2017-12-16T05:35:57.878Z,25.37
2017-12-16T05:38:25.278Z,23.20
2017-12-16T05:40:52.687Z,23.00
2017-12-16T05:43:20.135Z,23.17
2017-12-16T05:45:47.526Z,23.40
2017-12-16T05:48:14.932Z,26.30
2017-12-16T05:50:42.323Z,25.80
2017-12-16T05:53:10.555Z,25.50
2017-12-16T05:55:37.934Z,25.40
2017-12-16T05:58:05.334Z,24.83
2017-12-16T06:00:32.727Z,24.67
2017-12-16T06:03:00.123Z,24.00
2017-12-16T06:05:27.516Z,23.67
2017-12-16T06:07:54.913Z,24.53
2017-12-16T06:10:22.356Z,24.37
2017-12-16T06:12:49.771Z,25.50
2017-12-16T06:15:17.167Z,23.60
2017-12-16T06:17:44.567Z,23.87
2017-12-16T06:20:11.960Z,23.30
2017-12-16T06:22:39.363Z,24.20
2017-12-16T06:25:06.747Z,23.37
2017-12-16T06:27:34.130Z,24.93
2017-12-16T06:30:01.527Z,23.33
2017-12-16T06:32:28.923Z,21.40
2017-12-16T06:34:56.318Z,22.20
2017-12-16T06:37:23.718Z,24.00
2017-12-16T06:39:51.119Z,23.07
2017-12-16T06:42:18.519Z,27.50
2017-12-16T06:44:45.915Z,26.73
2017-12-16T06:47:13.302Z,27.30
2017-12-16T06:49:40.694Z,26.67
2017-12-16T06:52:08.083Z,25.63
2017-12-16T06:54:35.483Z,27.80
2017-12-16T06:57:02.871Z,29.33
2017-12-16T06:59:30.273Z,29.37
2017-12-16T07:01:57.663Z,28.17
2017-12-16T07:04:25.059Z,28.23
2017-12-16T07:06:52.454Z,28.67
2017-12-16T07:09:19.843Z,28.97
2017-12-16T07:11:47.231Z,29.30
2017-12-16T07:14:14.616Z,28.90
2017-12-16T07:16:42.015Z,30.23
2017-12-16T07:19:09.398Z,29.30
2017-12-16T07:21:36.867Z,28.07
2017-12-16T07:24:04.368Z,29.70
2017-12-16T07:26:31.770Z,29.43
2017-12-16T07:28:59.155Z,28.80
2017-12-16T07:31:26.554Z,28.33
2017-12-16T07:33:53.987Z,27.73
2017-12-16T07:36:21.383Z,27.80
2017-12-16T07:38:48.776Z,27.20
2017-12-16T07:41:16.172Z,26.40
2017-12-16T07:43:43.568Z,27.23
2017-12-16T07:46:10.963Z,26.30
2017-12-16T07:48:38.370Z,27.97
2017-12-16T07:51:06.567Z,27.00
2017-12-16T07:53:34.087Z,24.20
2017-12-16T07:56:01.488Z,26.00
2017-12-16T07:58:28.880Z,25.03
2017-12-16T08:00:56.298Z,24.13
2017-12-16T08:03:23.681Z,25.37
2017-12-16T08:05:51.093Z,23.90
2017-12-16T08:08:18.583Z,22.77
2017-12-16T08:10:46.039Z,22.30
2017-12-16T08:13:13.427Z,23.90
2017-12-16T08:15:40.823Z,22.80
2017-12-16T08:18:08.407Z,24.67
2017-12-16T08:20:35.839Z,24.00
2017-12-16T08:23:03.227Z,24.90
2017-12-16T08:25:30.615Z,24.43
2017-12-16T08:27:58.063Z,23.30
2017-12-16T08:30:25.483Z,22.17
2017-12-16T08:32:52.934Z,23.07
2017-12-16T08:35:20.275Z,24.77
2017-12-16T08:37:47.659Z,24.63
2017-12-16T08:40:15.046Z,26.67
2017-12-16T08:42:42.451Z,27.63
2017-12-16T08:45:09.915Z,24.40
2017-12-16T08:47:37.331Z,23.93
2017-12-16T08:50:04.727Z,23.87
2017-12-16T08:52:32.190Z,24.47
2017-12-16T08:54:59.582Z,22.60
2017-12-16T08:57:26.979Z,20.40
2017-12-16T08:59:54.414Z,21.83
2017-12-16T09:02:21.767Z,22.17
2017-12-16T09:04:49.171Z,21.67
2017-12-16T09:07:16.575Z,18.23
2017-12-16T09:09:43.990Z,18.37
2017-12-16T09:12:11.390Z,18.30
2017-12-16T09:14:38.774Z,16.83
2017-12-16T09:17:06.176Z,17.27
2017-12-16T09:19:33.586Z,17.83
2017-12-16T09:22:00.986Z,21.23
2017-12-16T09:24:28.375Z,18.87
2017-12-16T09:26:55.772Z,18.23
2017-12-16T09:29:23.182Z,17.90
2017-12-16T09:31:50.610Z,17.53
2017-12-16T09:34:18.003Z,17.53
2017-12-16T09:36:45.386Z,17.47
2017-12-16T09:39:12.784Z,17.47
2017-12-16T09:41:40.174Z,16.50
2017-12-16T09:44:07.576Z,16.57
2017-12-16T09:46:34.967Z,17.80
2017-12-16T09:49:02.447Z,18.23
2017-12-16T09:51:29.848Z,17.50
2017-12-16T09:53:57.234Z,18.00
2017-12-16T09:56:24.673Z,19.63
2017-12-16T09:58:52.063Z,16.87
2017-12-16T10:01:19.496Z,16.60
2017-12-16T10:03:46.892Z,17.40
2017-12-16T10:06:14.297Z,16.23
2017-12-16T10:08:41.703Z,16.00
2017-12-16T10:11:09.072Z,14.50
2017-12-16T10:13:36.483Z,14.80
2017-12-16T10:16:03.871Z,16.10
2017-12-16T10:18:31.303Z,16.47
2017-12-16T10:20:58.701Z,18.13
2017-12-16T10:23:26.091Z,17.30
2017-12-16T10:25:53.491Z,15.73
2017-12-16T10:28:20.874Z,17.63
2017-12-16T10:30:48.262Z,18.40
2017-12-16T10:33:15.663Z,15.57
2017-12-16T10:35:43.050Z,15.90
2017-12-16T10:38:10.443Z,16.33
2017-12-16T10:40:37.830Z,15.10
2017-12-16T10:43:05.233Z,14.70
2017-12-16T10:45:32.711Z,14.17
2017-12-16T10:48:00.097Z,13.57
2017-12-16T10:50:27.491Z,12.43
2017-12-16T10:52:54.887Z,10.93
2017-12-16T10:55:22.283Z,11.10
2017-12-16T10:57:49.811Z,9.30
2017-12-16T11:00:18.063Z,9.73
2017-12-16T11:02:45.461Z,9.70
2017-12-16T11:05:12.862Z,7.40
2017-12-16T11:07:40.332Z,8.70
2017-12-16T11:10:07.720Z,8.47
2017-12-16T11:12:35.120Z,6.40
2017-12-16T11:15:02.510Z,5.63
2017-12-16T11:17:34.864Z,5.20
2017-12-16T11:22:43.336Z,5.47
2017-12-16T11:25:10.727Z,5.97
2017-12-16T11:27:38.109Z,6.20
2017-12-16T11:30:05.505Z,7.47
2017-12-16T11:32:32.881Z,7.40
2017-12-16T11:35:00.284Z,5.87
2017-12-16T11:37:27.663Z,6.17
2017-12-16T11:39:55.049Z,6.80
2017-12-16T11:42:22.442Z,6.27
2017-12-16T11:44:49.847Z,7.40
2017-12-16T11:47:17.235Z,7.60
2017-12-16T11:49:44.631Z,7.23
2017-12-16T11:52:12.015Z,8.57
2017-12-16T11:54:39.408Z,7.93
2017-12-16T11:57:06.796Z,7.87
2017-12-16T11:59:34.188Z,5.40
2017-12-16T12:02:01.581Z,6.60
2017-12-16T12:04:28.980Z,6.13
2017-12-16T12:06:56.371Z,6.07
2017-12-16T12:09:23.749Z,5.60
2017-12-16T12:11:51.139Z,5.60
2017-12-16T12:14:18.551Z,5.67
2017-12-16T12:16:45.943Z,5.33
2017-12-16T12:19:13.327Z,5.70
2017-12-16T12:21:40.715Z,5.70
2017-12-16T12:24:08.103Z,6.40
2017-12-16T12:26:35.490Z,4.70
2017-12-16T12:29:02.890Z,5.97
2017-12-16T12:31:30.308Z,4.53
2017-12-16T12:33:57.726Z,5.10
2017-12-16T12:36:25.127Z,5.73
2017-12-16T12:38:52.518Z,5.03
2017-12-16T12:41:19.956Z,4.23
2017-12-16T12:43:47.407Z,5.07
2017-12-16T12:46:14.803Z,4.90
2017-12-16T12:48:42.223Z,4.13
2017-12-16T12:51:09.614Z,4.80
2017-12-16T12:53:37.012Z,5.13
2017-12-16T12:56:04.499Z,6.67
2017-12-16T12:58:31.878Z,4.97
2017-12-16T13:00:59.287Z,5.13
2017-12-16T13:03:26.685Z,4.70
2017-12-16T13:05:54.078Z,5.93
2017-12-16T13:08:21.565Z,4.60
2017-12-16T13:10:48.996Z,6.10
2017-12-16T13:13:16.391Z,5.60
2017-12-16T13:15:43.789Z,4.87
2017-12-16T13:18:11.170Z,5.60
2017-12-16T13:20:38.560Z,5.63
2017-12-16T13:23:05.959Z,4.63
2017-12-16T13:25:33.447Z,4.17
2017-12-16T13:28:00.838Z,4.60
2017-12-16T13:30:28.293Z,5.00
2017-12-16T13:32:55.684Z,5.17
2017-12-16T13:35:23.060Z,4.70
2017-12-16T13:37:50.455Z,4.87
2017-12-16T13:40:17.836Z,4.50
2017-12-16T13:42:45.244Z,5.00
2017-12-16T13:45:12.627Z,4.03
2017-12-16T13:47:40.092Z,4.23
2017-12-16T13:50:07.423Z,4.03
2017-12-16T13:52:34.826Z,3.40
2017-12-16T13:55:02.325Z,3.43
2017-12-16T13:57:29.741Z,2.97
2017-12-16T13:59:57.132Z,3.43
2017-12-16T14:02:24.534Z,2.43
2017-12-16T14:04:51.913Z,2.50
2017-12-16T14:07:19.311Z,2.90
2017-12-16T14:09:46.704Z,3.50
2017-12-16T14:12:14.106Z,2.50
2017-12-16T14:14:41.497Z,3.10
2017-12-16T14:17:08.884Z,1.93
2017-12-16T14:19:36.271Z,1.80
2017-12-16T14:22:03.751Z,1.70
2017-12-16T14:24:31.132Z,1.73
2017-12-16T14:26:58.569Z,2.10
2017-12-16T14:29:25.945Z,1.90
2017-12-16T14:31:53.342Z,2.07
2017-12-16T14:34:20.736Z,1.70
2017-12-16T14:36:48.119Z,2.83
2017-12-16T14:39:15.522Z,2.83
2017-12-16T14:41:42.918Z,1.80
2017-12-16T14:44:10.314Z,1.50
2017-12-16T14:46:37.696Z,2.20
2017-12-16T14:49:05.092Z,1.83
2017-12-16T14:51:32.471Z,1.50
2017-12-16T14:54:00.171Z,1.57
2017-12-16T14:56:27.718Z,1.40
2017-12-16T14:58:55.295Z,2.00
2017-12-16T15:01:22.914Z,1.77
2017-12-16T15:03:50.602Z,1.40
2017-12-16T15:06:18.119Z,2.10
2017-12-16T15:08:45.692Z,1.73
2017-12-16T15:11:13.079Z,1.40
2017-12-16T15:13:40.473Z,2.10
2017-12-16T15:16:07.863Z,1.57
2017-12-16T15:18:35.266Z,2.27
2017-12-16T15:21:02.647Z,1.30
2017-12-16T15:23:30.055Z,1.63
2017-12-16T15:25:57.459Z,1.47
2017-12-16T15:28:24.863Z,1.90
2017-12-16T15:30:52.249Z,1.87
2017-12-16T15:33:19.644Z,1.87
2017-12-16T15:35:47.029Z,1.70
2017-12-16T15:38:14.422Z,1.63
2017-12-16T15:40:41.809Z,1.57
2017-12-16T15:43:09.206Z,1.60
2017-12-16T15:45:36.595Z,1.60
2017-12-16T15:48:03.987Z,1.80
2017-12-16T15:50:31.378Z,1.77
2017-12-16T15:52:58.764Z,1.13
2017-12-16T15:55:26.158Z,1.30
2017-12-16T15:57:53.544Z,2.07
2017-12-16T16:00:20.931Z,1.70
2017-12-16T16:02:48.332Z,1.90
2017-12-16T16:05:15.776Z,1.90
2017-12-16T16:07:43.155Z,2.27
2017-12-16T16:10:10.548Z,1.63
2017-12-16T16:12:37.966Z,2.10
2017-12-16T16:15:05.355Z,2.50
2017-12-16T16:17:32.759Z,2.20
2017-12-16T16:20:00.146Z,3.67
2017-12-16T16:22:27.539Z,4.17
2017-12-16T16:24:54.925Z,2.90
2017-12-16T16:27:22.302Z,2.67
2017-12-16T16:29:49.699Z,3.67
2017-12-16T16:32:17.086Z,3.70
2017-12-16T16:34:44.546Z,3.50
2017-12-16T16:37:11.935Z,2.83
2017-12-16T16:39:39.331Z,4.60
2017-12-16T16:42:06.716Z,3.20
2017-12-16T16:44:34.102Z,3.83
2017-12-16T16:47:01.503Z,4.00
2017-12-16T16:49:29.002Z,3.80
2017-12-16T16:51:56.393Z,3.63
2017-12-16T16:54:23.778Z,4.03
2017-12-16T16:56:51.171Z,3.50
2017-12-16T16:59:18.553Z,3.40
2017-12-16T17:01:45.951Z,3.83
2017-12-16T17:04:13.342Z,4.27
2017-12-16T17:06:40.731Z,4.03
2017-12-16T17:09:08.154Z,3.57
2017-12-16T17:11:35.558Z,4.03
2017-12-16T17:14:02.927Z,4.60
2017-12-16T17:16:30.333Z,4.30
2017-12-16T17:18:57.774Z,4.43
2017-12-16T17:21:25.163Z,3.67
2017-12-16T17:23:52.557Z,3.80
2017-12-16T17:26:19.944Z,3.97
2017-12-16T17:28:47.335Z,4.90
2017-12-16T17:31:14.732Z,3.67
2017-12-16T17:33:42.204Z,4.30
2017-12-16T17:36:09.611Z,3.97
2017-12-16T17:38:37.085Z,4.40
2017-12-16T17:41:04.480Z,4.50
2017-12-16T17:43:31.858Z,5.00
2017-12-16T17:45:59.252Z,4.87
2017-12-16T17:48:26.634Z,5.00
2017-12-16T17:50:54.058Z,6.30
2017-12-16T17:53:21.445Z,4.27
2017-12-16T17:55:48.831Z,5.67
2017-12-16T17:58:16.235Z,4.70
2017-12-16T18:00:43.638Z,4.87
2017-12-16T18:03:11.031Z,4.93
2017-12-16T18:05:38.415Z,5.17
2017-12-16T18:08:05.813Z,4.93
2017-12-16T18:10:33.195Z,4.33
2017-12-16T18:13:00.591Z,6.53
2017-12-16T18:15:27.975Z,6.20
2017-12-16T18:17:55.372Z,5.57
2017-12-16T18:20:22.761Z,9.43
2017-12-16T18:22:50.155Z,7.90
2017-12-16T18:25:17.587Z,6.70
2017-12-16T18:27:44.971Z,6.90
2017-12-16T18:30:12.354Z,6.87
2017-12-16T18:32:39.738Z,6.50
2017-12-16T18:35:07.146Z,7.20
2017-12-16T18:37:34.548Z,6.17
2017-12-16T18:40:01.934Z,6.73
2017-12-16T18:42:29.369Z,8.70
2017-12-16T18:44:56.739Z,7.20
2017-12-16T18:47:24.159Z,6.03
2017-12-16T18:49:51.546Z,6.43
2017-12-16T18:52:18.940Z,6.73
2017-12-16T18:54:46.321Z,6.87
2017-12-16T18:57:13.714Z,6.00
2017-12-16T18:59:41.109Z,7.13
2017-12-16T19:02:08.499Z,8.07
2017-12-16T19:04:36.010Z,7.60
2017-12-16T19:07:03.407Z,7.67
2017-12-16T19:09:30.789Z,7.60
2017-12-16T19:11:58.183Z,7.20
2017-12-16T19:14:25.581Z,6.60
2017-12-16T19:16:53.212Z,6.93
2017-12-16T19:19:20.587Z,6.93
2017-12-16T19:21:47.978Z,6.80
2017-12-16T19:24:15.451Z,6.50
2017-12-16T19:26:42.845Z,6.87
2017-12-16T19:29:10.245Z,6.60
2017-12-16T19:31:37.648Z,7.67
2017-12-16T19:34:05.054Z,7.60
2017-12-16T19:36:32.526Z,9.37
2017-12-16T19:38:59.924Z,7.10
2017-12-16T19:41:27.334Z,5.60
2017-12-16T19:43:54.691Z,6.40
2017-12-16T19:46:22.083Z,5.40
2017-12-16T19:48:49.481Z,5.13
2017-12-16T19:51:16.868Z,4.27
2017-12-16T19:53:44.288Z,5.30
2017-12-16T19:56:11.687Z,5.33
2017-12-16T20:01:12.975Z,5.87
2017-12-16T20:03:40.371Z,5.80
2017-12-16T20:06:07.756Z,6.13
2017-12-16T20:08:35.142Z,6.70
2017-12-16T20:11:02.546Z,6.40
2017-12-16T20:13:29.947Z,6.47
2017-12-16T20:15:57.354Z,5.37
2017-12-16T20:18:24.765Z,7.50
2017-12-16T20:20:52.155Z,7.33
2017-12-16T20:23:19.606Z,7.20
2017-12-16T20:25:46.926Z,8.27
2017-12-16T20:28:14.348Z,8.37
2017-12-16T20:30:41.738Z,7.60
2017-12-16T20:33:09.111Z,6.90
2017-12-16T20:35:36.516Z,7.90
2017-12-16T20:38:03.908Z,8.03
2017-12-16T20:40:31.322Z,7.60
2017-12-16T20:42:58.699Z,8.67
2017-12-16T20:45:26.089Z,9.03
2017-12-16T20:47:53.482Z,7.40
2017-12-16T20:50:20.876Z,6.50
2017-12-16T20:52:48.274Z,7.03
2017-12-16T20:55:15.665Z,6.83
2017-12-16T20:57:43.052Z,6.37
2017-12-16T21:00:10.551Z,6.37
2017-12-16T21:02:37.939Z,6.90
2017-12-16T21:05:05.334Z,6.03
2017-12-16T21:07:32.722Z,5.77
2017-12-16T21:10:00.171Z,5.80
2017-12-16T21:12:27.555Z,5.17
2017-12-16T21:14:54.946Z,5.47
2017-12-16T21:17:22.355Z,5.43
2017-12-16T21:19:49.748Z,5.07
2017-12-16T21:22:17.134Z,5.77
2017-12-16T21:24:44.576Z,5.10
2017-12-16T21:27:12.056Z,5.67
2017-12-16T21:29:39.494Z,5.90
2017-12-16T21:32:06.888Z,5.72
2017-12-16T21:34:34.284Z,6.73
2017-12-16T21:37:01.668Z,6.83
2017-12-16T21:39:29.075Z,6.40
2017-12-16T21:41:56.468Z,5.73
2017-12-16T21:44:23.859Z,7.07
2017-12-16T21:46:51.258Z,5.73
2017-12-16T21:49:18.646Z,5.03
2017-12-16T21:51:46.043Z,4.80
2017-12-16T21:54:13.423Z,7.00
2017-12-16T21:56:40.815Z,6.03
2017-12-16T21:59:08.271Z,5.50
2017-12-16T22:01:35.759Z,5.80
2017-12-16T22:04:03.110Z,7.10
2017-12-16T22:06:30.511Z,6.83
2017-12-16T22:08:57.907Z,8.03
2017-12-16T22:11:25.308Z,8.00
2017-12-16T22:13:52.690Z,8.83
2017-12-16T22:16:20.144Z,6.97
2017-12-16T22:18:47.542Z,6.50
2017-12-16T22:21:14.937Z,8.60
2017-12-16T22:23:42.321Z,6.30
2017-12-16T22:26:09.722Z,4.97
2017-12-16T22:28:37.111Z,5.17
2017-12-16T22:31:04.542Z,5.43
2017-12-16T22:33:31.994Z,5.80
2017-12-16T22:35:59.382Z,6.27
2017-12-16T22:38:26.774Z,5.57
2017-12-16T22:40:54.159Z,5.30
2017-12-16T22:43:21.555Z,4.87
2017-12-16T22:45:48.951Z,4.90
2017-12-16T22:48:16.334Z,4.73
2017-12-16T22:50:43.722Z,5.00
2017-12-16T22:53:11.131Z,5.87
2017-12-16T22:55:38.515Z,4.77
2017-12-16T22:58:05.902Z,4.73
2017-12-16T23:00:33.302Z,3.70
2017-12-16T23:03:00.689Z,3.67
2017-12-16T23:05:28.150Z,4.07
2017-12-16T23:07:55.538Z,4.57
2017-12-16T23:10:22.943Z,4.50
2017-12-16T23:12:50.338Z,4.27
2017-12-16T23:15:17.736Z,3.60
2017-12-16T23:17:45.133Z,4.40
2017-12-16T23:20:12.519Z,3.40
2017-12-16T23:22:39.915Z,3.93
2017-12-16T23:25:07.302Z,4.17
2017-12-16T23:27:34.691Z,4.60
2017-12-16T23:30:02.083Z,4.90
2017-12-16T23:32:29.479Z,4.80
2017-12-16T23:34:56.921Z,4.73
2017-12-16T23:37:24.308Z,4.20
2017-12-16T23:39:51.704Z,3.50
2017-12-16T23:42:19.105Z,4.63
2017-12-16T23:44:46.491Z,4.80
2017-12-16T23:47:13.890Z,4.90
2017-12-16T23:49:41.283Z,4.23
2017-12-16T23:52:08.667Z,5.20
2017-12-16T23:54:36.087Z,4.97
2017-12-16T23:57:03.470Z,5.23
2017-12-16T23:59:30.899Z,5.40
